Time;durP1;ratioP1;P1;durP2;ratioP2;P2;SDS_P1;SDS_P2;PMS_P1;PMS_P2;Temp;Humidity;BMP_temperature;BMP_pressure;BME280_temperature;BME280_humidity;BME280_pressure;Samples;Min_cycle;Max_cycle;Signal;HPM_P1;HPM_P2
2021/08/28 00:00:50;;;;;;;15.43;5.07;;;;;;;;;;5094036;28;20069;-72
2021/08/28 00:03:16;;;;;;;16.63;4.40;;;;;;;;;;5111008;28;20028;-73
2021/08/28 00:05:42;;;;;;;15.68;4.65;;;;;;;;;;5112113;28;20595;-72
2021/08/28 00:08:08;;;;;;;25.38;5.88;;;;;;;;;;5112127;28;20038;-72
2021/08/28 00:10:35;;;;;;;28.60;4.75;;;;;;;;;;5093642;28;20053;-72
2021/08/28 00:13:01;;;;;;;19.35;4.20;;;;;;;;;;5092779;28;20401;-73
2021/08/28 00:15:27;;;;;;;17.17;4.35;;;;;;;;;;5111466;28;20031;-72
2021/08/28 00:17:53;;;;;;;25.38;4.95;;;;;;;;;;5111592;28;20011;-72
2021/08/28 00:20:19;;;;;;;18.83;6.68;;;;;;;;;;5111546;28;20023;-72
2021/08/28 00:22:45;;;;;;;22.58;5.72;;;;;;;;;;5091825;28;20532;-73
2021/08/28 00:25:11;;;;;;;23.63;7.82;;;;;;;;;;5092526;28;20036;-72
2021/08/28 00:27:38;;;;;;;23.30;6.47;;;;;;;;;;5112032;28;20090;-73
2021/08/28 00:30:04;;;;;;;26.10;7.57;;;;;;;;;;5111277;28;20660;-76
2021/08/28 00:32:30;;;;;;;26.02;6.45;;;;;;;;;;5092046;28;20023;-74
2021/08/28 00:34:56;;;;;;;22.35;6.75;;;;;;;;;;5110283;28;20027;-74
2021/08/28 00:37:22;;;;;;;24.55;6.45;;;;;;;;;;5110247;28;20023;-74
2021/08/28 00:39:48;;;;;;;26.90;6.97;;;;;;;;;;5110249;28;20032;-73
2021/08/28 00:42:14;;;;;;;22.55;6.88;;;;;;;;;;5091637;28;20081;-75
2021/08/28 00:44:41;;;;;;;27.52;6.35;;;;;;;;;;5110714;28;20027;-73
2021/08/28 00:47:07;;;;;;;27.75;7.28;;;;;;;;;;5092368;28;20027;-75
2021/08/28 00:49:34;;;;;;;29.05;7.38;;;;;;;;;;5110691;28;20048;-72
2021/08/28 00:52:04;;;;;;;26.23;7.43;;;;;;;;;;5091605;28;20046;-73
2021/08/28 00:54:33;;;;;;;25.85;7.20;;;;;;;;;;5110109;28;20480;-73
2021/08/28 00:57:01;;;;;;;27.48;6.85;;;;;;;;;;5092551;28;20032;-72
2021/08/28 00:59:27;;;;;;;21.33;5.95;;;;;;;;;;5111145;28;20035;-72
2021/08/28 01:01:54;;;;;;;23.05;6.50;;;;;;;;;;5110986;28;20034;-72
2021/08/28 01:04:20;;;;;;;18.20;5.47;;;;;;;;;;5110009;28;20738;-71
2021/08/28 01:07:04;;;;;;;24.23;6.13;;;;;;;;;;5092205;28;20126;-73
2021/08/28 01:09:31;;;;;;;21.92;5.20;;;;;;;;;;5110089;28;20032;-74
2021/08/28 01:12:00;;;;;;;24.13;6.57;;;;;;;;;;5092002;28;20050;-72
2021/08/28 01:14:28;;;;;;;19.23;6.00;;;;;;;;;;5109152;28;20023;-73
2021/08/28 01:17:01;;;;;;;17.67;4.82;;;;;;;;;;5110038;28;20016;-75
2021/08/28 01:19:36;;;;;;;13.57;3.67;;;;;;;;;;5092482;28;20169;-74
2021/08/28 01:22:07;;;;;;;10.73;3.47;;;;;;;;;;5110700;28;20406;-76
2021/08/28 01:24:34;;;;;;;10.00;3.10;;;;;;;;;;5110176;28;20035;-75
2021/08/28 01:27:02;;;;;;;10.07;3.58;;;;;;;;;;5110521;28;20023;-79
2021/08/28 01:29:31;;;;;;;13.50;3.65;;;;;;;;;;5111002;28;20122;-75
2021/08/28 01:31:58;;;;;;;11.05;3.17;;;;;;;;;;5108410;28;20031;-74
2021/08/28 01:34:24;;;;;;;16.35;4.22;;;;;;;;;;5109507;28;20032;-74
2021/08/28 01:36:51;;;;;;;17.85;4.68;;;;;;;;;;5110814;28;20032;-74
2021/08/28 01:39:18;;;;;;;22.80;5.68;;;;;;;;;;5109805;28;20023;-75
2021/08/28 01:41:46;;;;;;;34.10;7.78;;;;;;;;;;5110094;28;20034;-73
2021/08/28 01:44:13;;;;;;;32.65;6.90;;;;;;;;;;5090810;28;20031;-74
2021/08/28 01:46:39;;;;;;;27.50;7.82;;;;;;;;;;5110227;28;20031;-74
2021/08/28 01:49:07;;;;;;;34.20;7.18;;;;;;;;;;5090811;28;20122;-73
2021/08/28 01:51:33;;;;;;;23.75;6.82;;;;;;;;;;5109509;28;20023;-75
2021/08/28 01:53:59;;;;;;;22.75;7.10;;;;;;;;;;5090247;28;20043;-74
2021/08/28 01:56:25;;;;;;;25.35;7.25;;;;;;;;;;5091129;28;20547;-74
2021/08/28 01:58:52;;;;;;;22.77;6.88;;;;;;;;;;5110332;28;20050;-74
2021/08/28 02:01:18;;;;;;;27.27;6.60;;;;;;;;;;5110061;28;20040;-74
2021/08/28 02:03:44;;;;;;;23.58;7.68;;;;;;;;;;5108011;28;20111;-73
2021/08/28 02:06:16;;;;;;;21.42;7.47;;;;;;;;;;5110096;28;20378;-73
2021/08/28 02:08:51;;;;;;;22.52;6.30;;;;;;;;;;5107252;28;20043;-72
2021/08/28 02:11:19;;;;;;;26.90;7.00;;;;;;;;;;5109046;28;20031;-72
2021/08/28 02:13:55;;;;;;;23.95;7.75;;;;;;;;;;5106150;28;20022;-74
2021/08/28 02:16:23;;;;;;;30.88;8.55;;;;;;;;;;5109311;28;20016;-72
2021/08/28 02:18:51;;;;;;;24.20;7.55;;;;;;;;;;5105330;28;20103;-73
2021/08/28 02:21:18;;;;;;;29.80;8.30;;;;;;;;;;5109733;28;20031;-72
2021/08/28 02:23:44;;;;;;;21.98;6.70;;;;;;;;;;5106982;28;21176;-73
2021/08/28 02:26:12;;;;;;;26.25;7.47;;;;;;;;;;5109172;28;20528;-73
2021/08/28 02:28:43;;;;;;;45.58;6.50;;;;;;;;;;5109896;28;20035;-73
2021/08/28 02:31:09;;;;;;;21.33;7.05;;;;;;;;;;5108838;28;20140;-72
2021/08/28 02:33:36;;;;;;;27.90;7.97;;;;;;;;;;5107862;28;20023;-73
2021/08/28 02:36:02;;;;;;;26.02;6.95;;;;;;;;;;5090996;28;20606;-76
2021/08/28 02:38:28;;;;;;;28.83;7.68;;;;;;;;;;5109516;28;20020;-73
2021/08/28 02:40:58;;;;;;;27.15;6.70;;;;;;;;;;5090612;28;20478;-72
2021/08/28 02:43:26;;;;;;;24.15;7.30;;;;;;;;;;5108112;28;20493;-74
2021/08/28 02:45:52;;;;;;;26.42;7.53;;;;;;;;;;5109836;28;20517;-74
2021/08/28 02:48:20;;;;;;;23.58;7.32;;;;;;;;;;5110097;28;20540;-73
2021/08/28 02:50:48;;;;;;;30.13;6.93;;;;;;;;;;5108629;28;20051;-72
2021/08/28 02:53:15;;;;;;;24.40;7.32;;;;;;;;;;5089800;28;20436;-72
2021/08/28 02:55:44;;;;;;;31.80;7.65;;;;;;;;;;5109411;28;20135;-72
2021/08/28 02:58:10;;;;;;;27.05;7.63;;;;;;;;;;5091058;28;20030;-72
2021/08/28 03:00:37;;;;;;;25.13;6.75;;;;;;;;;;5110541;28;20031;-73
2021/08/28 03:03:03;;;;;;;25.70;7.18;;;;;;;;;;5112012;28;20027;-74
2021/08/28 03:05:30;;;;;;;19.90;7.75;;;;;;;;;;5113495;28;20085;-74
2021/08/28 03:07:56;;;;;;;22.15;7.75;;;;;;;;;;5113477;28;20023;-73
2021/08/28 03:10:23;;;;;;;20.58;6.40;;;;;;;;;;5112312;28;20020;-75
2021/08/28 03:12:49;;;;;;;23.08;6.95;;;;;;;;;;5109255;28;20030;-73
2021/08/28 03:15:15;;;;;;;29.58;7.18;;;;;;;;;;5113153;28;20606;-72
2021/08/28 03:17:42;;;;;;;24.90;6.82;;;;;;;;;;5092478;28;20606;-74
2021/08/28 03:20:09;;;;;;;30.10;8.00;;;;;;;;;;5112190;28;20031;-73
2021/08/28 03:22:36;;;;;;;23.60;6.90;;;;;;;;;;5110772;28;20106;-73
2021/08/28 03:25:05;;;;;;;24.25;6.40;;;;;;;;;;5112565;28;20115;-73
2021/08/28 03:27:32;;;;;;;20.70;7.00;;;;;;;;;;5112962;28;20054;-73
2021/08/28 03:29:59;;;;;;;28.02;7.35;;;;;;;;;;5112111;28;20489;-74
2021/08/28 03:32:25;;;;;;;26.02;7.30;;;;;;;;;;5109311;28;20120;-74
2021/08/28 03:34:52;;;;;;;25.45;6.65;;;;;;;;;;5112746;28;20028;-79
2021/08/28 03:37:19;;;;;;;31.02;7.30;;;;;;;;;;5112427;28;20040;-73
2021/08/28 03:39:45;;;;;;;24.73;7.20;;;;;;;;;;5093939;28;20020;-72
2021/08/28 03:42:11;;;;;;;31.52;7.60;;;;;;;;;;5093953;28;20027;-74
2021/08/28 03:44:41;;;;;;;23.25;7.68;;;;;;;;;;5112088;28;20015;-74
2021/08/28 03:47:07;;;;;;;29.25;6.25;;;;;;;;;;5109915;28;20036;-76
2021/08/28 03:49:33;;;;;;;22.63;5.93;;;;;;;;;;5094017;28;20062;-75
2021/08/28 03:52:00;;;;;;;20.30;5.93;;;;;;;;;;5094208;28;20030;-74
2021/08/28 03:54:26;;;;;;;17.92;6.18;;;;;;;;;;5092911;28;20047;-73
2021/08/28 03:56:52;;;;;;;26.70;7.32;;;;;;;;;;5091514;28;20020;-74
2021/08/28 03:59:18;;;;;;;31.85;7.28;;;;;;;;;;5112345;28;20027;-77
2021/08/28 04:01:45;;;;;;;25.77;7.15;;;;;;;;;;5112124;28;20026;-74
2021/08/28 04:04:11;;;;;;;21.80;6.80;;;;;;;;;;5111348;28;20084;-75
2021/08/28 04:06:37;;;;;;;18.35;5.72;;;;;;;;;;5093842;28;20023;-74
2021/08/28 04:09:03;;;;;;;27.48;7.07;;;;;;;;;;5111995;28;20036;-75
2021/08/28 04:11:29;;;;;;;26.35;7.63;;;;;;;;;;5092887;28;20027;-75
2021/08/28 04:13:55;;;;;;;28.27;7.63;;;;;;;;;;5107883;28;20102;-74
2021/08/28 04:16:21;;;;;;;33.20;8.05;;;;;;;;;;5111329;28;20024;-76
2021/08/28 04:18:47;;;;;;;29.63;7.82;;;;;;;;;;5111982;28;20024;-74
2021/08/28 04:21:13;;;;;;;27.77;7.18;;;;;;;;;;5111648;28;20039;-74
2021/08/28 04:23:39;;;;;;;27.73;7.53;;;;;;;;;;5110177;28;20031;-75
2021/08/28 04:26:05;;;;;;;22.13;6.45;;;;;;;;;;5111361;28;20043;-72
2021/08/28 04:28:31;;;;;;;21.52;6.80;;;;;;;;;;5093795;28;20023;-72
2021/08/28 04:30:57;;;;;;;24.40;7.60;;;;;;;;;;5093990;28;20118;-75
2021/08/28 04:33:23;;;;;;;19.00;6.47;;;;;;;;;;5110029;28;20024;-74
2021/08/28 04:35:49;;;;;;;24.52;7.10;;;;;;;;;;5090706;28;20465;-73
2021/08/28 04:38:15;;;;;;;23.95;7.93;;;;;;;;;;5111887;28;20024;-75
2021/08/28 04:40:41;;;;;;;21.48;7.03;;;;;;;;;;5111744;28;20285;-74
2021/08/28 04:43:07;;;;;;;28.83;7.88;;;;;;;;;;5109433;28;20027;-72
2021/08/28 04:45:34;;;;;;;29.50;7.15;;;;;;;;;;5111053;28;20034;-76
2021/08/28 04:48:00;;;;;;;26.88;7.28;;;;;;;;;;5092751;28;20057;-75
2021/08/28 04:50:26;;;;;;;30.10;7.03;;;;;;;;;;5110349;28;20048;-73
2021/08/28 04:52:52;;;;;;;20.67;6.88;;;;;;;;;;5109720;28;20057;-77
2021/08/28 04:55:18;;;;;;;23.73;7.03;;;;;;;;;;5110760;28;20035;-73
2021/08/28 04:57:44;;;;;;;26.33;6.97;;;;;;;;;;5092186;28;20404;-74
2021/08/28 05:00:10;;;;;;;23.70;6.22;;;;;;;;;;5111119;28;20028;-74
2021/08/28 05:02:37;;;;;;;28.42;6.45;;;;;;;;;;5109785;28;20076;-72
2021/08/28 05:05:03;;;;;;;31.17;7.05;;;;;;;;;;5109856;28;20543;-72
2021/08/28 05:07:30;;;;;;;22.40;6.22;;;;;;;;;;5092056;28;20109;-72
2021/08/28 05:09:56;;;;;;;23.33;7.20;;;;;;;;;;5109048;28;20160;-75
2021/08/28 05:12:22;;;;;;;24.15;6.72;;;;;;;;;;5108372;28;20031;-74
2021/08/28 05:14:48;;;;;;;26.52;6.28;;;;;;;;;;5110706;28;20054;-77
2021/08/28 05:17:14;;;;;;;26.55;6.82;;;;;;;;;;5110559;28;20020;-74
2021/08/28 05:19:40;;;;;;;23.30;5.93;;;;;;;;;;5110351;28;20038;-76
2021/08/28 05:22:06;;;;;;;20.23;6.32;;;;;;;;;;5109857;28;20054;-81
2021/08/28 05:24:34;;;;;;;20.35;6.05;;;;;;;;;;5108895;28;20020;-75
2021/08/28 05:27:01;;;;;;;23.00;6.03;;;;;;;;;;5111046;28;20024;-73
2021/08/28 05:29:27;;;;;;;24.30;6.65;;;;;;;;;;5109499;28;20509;-73
2021/08/28 05:31:53;;;;;;;24.60;6.45;;;;;;;;;;5110004;28;20521;-74
2021/08/28 05:34:19;;;;;;;21.95;7.32;;;;;;;;;;5107398;28;20020;-74
2021/08/28 05:36:45;;;;;;;21.75;6.30;;;;;;;;;;5109882;28;20095;-73
2021/08/28 05:39:11;;;;;;;20.50;5.90;;;;;;;;;;5110107;28;20073;-74
2021/08/28 05:41:37;;;;;;;19.48;5.15;;;;;;;;;;5108815;28;20034;-74
2021/08/28 05:44:04;;;;;;;15.18;5.00;;;;;;;;;;5107731;28;20020;-76
2021/08/28 05:46:30;;;;;;;26.48;7.40;;;;;;;;;;5087469;28;20008;-77
2021/08/28 05:48:56;;;;;;;27.05;6.20;;;;;;;;;;5109672;28;20039;-73
2021/08/28 05:51:22;;;;;;;16.38;6.22;;;;;;;;;;5107420;28;20027;-74
2021/08/28 05:53:48;;;;;;;23.52;6.00;;;;;;;;;;5107963;28;20024;-72
2021/08/28 05:56:14;;;;;;;32.10;6.10;;;;;;;;;;5110810;28;20034;-72
2021/08/28 05:58:40;;;;;;;32.38;8.15;;;;;;;;;;5109920;28;20016;-72
2021/08/28 06:01:06;;;;;;;28.42;7.90;;;;;;;;;;5109633;28;20778;-73
2021/08/28 06:03:32;;;;;;;32.17;8.10;;;;;;;;;;5108311;28;20108;-72
2021/08/28 06:05:58;;;;;;;32.70;8.20;;;;;;;;;;5092566;28;20595;-72
2021/08/28 06:08:24;;;;;;;24.38;8.48;;;;;;;;;;5111428;28;20591;-72
2021/08/28 06:10:50;;;;;;;22.13;8.80;;;;;;;;;;5111265;28;20048;-72
2021/08/28 06:13:16;;;;;;;23.02;7.88;;;;;;;;;;5109357;28;20032;-74
2021/08/28 06:15:42;;;;;;;27.95;7.43;;;;;;;;;;5108264;28;20024;-72
2021/08/28 06:18:08;;;;;;;22.08;8.20;;;;;;;;;;5092328;28;20370;-72
2021/08/28 06:20:34;;;;;;;30.80;10.15;;;;;;;;;;5111179;28;20481;-73
2021/08/28 06:23:00;;;;;;;27.00;7.95;;;;;;;;;;5109638;28;20028;-79
2021/08/28 06:25:27;;;;;;;24.88;7.68;;;;;;;;;;5110902;28;20024;-71
2021/08/28 06:27:53;;;;;;;29.20;6.43;;;;;;;;;;5091866;28;20068;-73
2021/08/28 06:30:19;;;;;;;23.30;6.80;;;;;;;;;;5110451;28;20567;-73
2021/08/28 06:32:47;;;;;;;18.73;7.25;;;;;;;;;;5087920;28;20562;-73
2021/08/28 06:35:13;;;;;;;17.60;6.78;;;;;;;;;;5110370;27;20027;-73
2021/08/28 06:37:39;;;;;;;24.58;7.78;;;;;;;;;;5113782;28;20019;-73
2021/08/28 06:40:05;;;;;;;22.20;7.40;;;;;;;;;;5114901;28;20024;-72
2021/08/28 06:42:31;;;;;;;23.80;7.90;;;;;;;;;;5113130;28;20035;-72
2021/08/28 06:44:59;;;;;;;18.88;6.95;;;;;;;;;;5113916;28;20077;-72
2021/08/28 06:47:27;;;;;;;21.88;8.45;;;;;;;;;;5096252;28;20031;-72
2021/08/28 06:49:53;;;;;;;26.45;8.38;;;;;;;;;;5113261;28;20122;-71
2021/08/28 06:52:19;;;;;;;26.55;10.10;;;;;;;;;;5095155;28;20028;-71
2021/08/28 06:54:45;;;;;;;28.08;8.52;;;;;;;;;;5113268;28;20030;-72
2021/08/28 06:57:11;;;;;;;24.27;8.38;;;;;;;;;;5095512;28;20047;-71
2021/08/28 06:59:37;;;;;;;27.42;8.45;;;;;;;;;;5114458;28;20019;-71
2021/08/28 07:02:03;;;;;;;23.92;7.70;;;;;;;;;;5109234;28;20035;-71
2021/08/28 07:04:30;;;;;;;22.25;8.45;;;;;;;;;;5110644;28;20020;-71
2021/08/28 07:06:56;;;;;;;24.67;8.20;;;;;;;;;;5109198;28;20039;-72
2021/08/28 07:09:22;;;;;;;23.33;7.93;;;;;;;;;;5112800;28;20041;-73
2021/08/28 07:11:48;;;;;;;24.70;5.97;;;;;;;;;;5108148;28;20034;-74
2021/08/28 07:14:14;;;;;;;15.63;5.40;;;;;;;;;;5110166;28;20020;-72
2021/08/28 07:16:42;;;;;;;19.45;5.47;;;;;;;;;;5113561;28;20030;-74
2021/08/28 07:19:08;;;;;;;22.58;5.63;;;;;;;;;;5109860;28;20027;-74
2021/08/28 07:21:34;;;;;;;23.83;5.07;;;;;;;;;;5112210;28;20028;-72
2021/08/28 07:24:00;;;;;;;14.25;5.10;;;;;;;;;;5111578;28;20019;-71
2021/08/28 07:26:26;;;;;;;13.70;5.20;;;;;;;;;;5108675;28;21354;-72
2021/08/28 07:28:52;;;;;;;18.20;6.45;;;;;;;;;;5092277;28;20019;-79
2021/08/28 07:31:18;;;;;;;17.13;5.38;;;;;;;;;;5109945;28;20110;-71
2021/08/28 07:33:45;;;;;;;16.13;5.95;;;;;;;;;;5109724;28;20073;-75
2021/08/28 07:36:11;;;;;;;19.00;7.32;;;;;;;;;;5093060;28;20043;-74
2021/08/28 07:38:37;;;;;;;25.83;6.55;;;;;;;;;;5112336;28;20022;-73
2021/08/28 07:41:03;;;;;;;23.90;6.43;;;;;;;;;;5111345;28;20036;-73
2021/08/28 07:43:30;;;;;;;20.73;6.68;;;;;;;;;;5108645;28;20051;-70
2021/08/28 07:45:56;;;;;;;20.73;7.63;;;;;;;;;;5110179;28;20085;-73
2021/08/28 07:48:22;;;;;;;14.82;6.32;;;;;;;;;;5111011;28;20023;-74
2021/08/28 07:50:48;;;;;;;25.58;7.15;;;;;;;;;;5110236;28;20093;-72
2021/08/28 07:53:14;;;;;;;20.33;7.43;;;;;;;;;;5092629;28;20027;-74
2021/08/28 07:55:40;;;;;;;23.42;8.32;;;;;;;;;;5111128;28;20016;-75
2021/08/28 07:58:06;;;;;;;21.60;7.82;;;;;;;;;;5110669;28;20058;-72
2021/08/28 08:00:32;;;;;;;23.65;8.60;;;;;;;;;;5111185;28;20107;-75
2021/08/28 08:02:58;;;;;;;27.15;8.82;;;;;;;;;;5106257;28;20035;-71
2021/08/28 08:05:24;;;;;;;33.50;9.55;;;;;;;;;;5092383;28;20040;-74
2021/08/28 08:07:50;;;;;;;25.73;9.63;;;;;;;;;;5107618;27;20485;-73
2021/08/28 08:10:16;;;;;;;22.95;7.57;;;;;;;;;;5110735;28;20042;-74
2021/08/28 08:12:42;;;;;;;24.45;7.75;;;;;;;;;;5107044;28;20042;-73
2021/08/28 08:15:10;;;;;;;22.50;8.38;;;;;;;;;;5110692;28;20132;-72
2021/08/28 08:17:36;;;;;;;28.60;9.93;;;;;;;;;;5112410;28;20016;-71
2021/08/28 08:20:03;;;;;;;38.50;10.77;;;;;;;;;;5110608;28;20143;-74
2021/08/28 08:22:29;;;;;;;28.15;8.68;;;;;;;;;;5110284;28;20042;-74
2021/08/28 08:24:55;;;;;;;23.35;8.75;;;;;;;;;;5109083;28;20433;-72
2021/08/28 08:27:21;;;;;;;23.92;8.23;;;;;;;;;;5110625;28;20022;-73
2021/08/28 08:29:47;;;;;;;28.00;7.53;;;;;;;;;;5108235;28;20083;-75
2021/08/28 08:32:13;;;;;;;28.50;8.43;;;;;;;;;;5091273;28;20032;-75
2021/08/28 08:34:40;;;;;;;29.35;9.23;;;;;;;;;;5109023;28;20481;-73
2021/08/28 08:37:06;;;;;;;19.23;6.88;;;;;;;;;;5103622;28;20489;-77
2021/08/28 08:39:32;;;;;;;30.65;8.65;;;;;;;;;;5108854;28;20473;-74
2021/08/28 08:42:00;;;;;;;20.13;7.78;;;;;;;;;;5092862;28;20030;-78
2021/08/28 08:44:26;;;;;;;19.58;8.05;;;;;;;;;;5108796;28;20081;-77
2021/08/28 08:46:52;;;;;;;23.63;7.95;;;;;;;;;;5106148;28;20042;-74
2021/08/28 08:49:19;;;;;;;26.75;8.23;;;;;;;;;;5083602;28;20040;-75
2021/08/28 08:51:45;;;;;;;20.38;6.60;;;;;;;;;;5097967;28;20065;-79
2021/08/28 08:54:11;;;;;;;18.67;6.28;;;;;;;;;;5104978;28;20039;-75
2021/08/28 08:56:37;;;;;;;21.42;6.28;;;;;;;;;;5092243;28;20397;-76
2021/08/28 08:59:04;;;;;;;22.42;6.90;;;;;;;;;;5109465;28;20127;-75
2021/08/28 09:01:30;;;;;;;20.67;6.68;;;;;;;;;;5091081;28;20035;-75
2021/08/28 09:03:57;;;;;;;21.48;7.88;;;;;;;;;;5105818;28;20027;-75
2021/08/28 09:06:23;;;;;;;24.95;7.60;;;;;;;;;;5090274;28;20074;-74
2021/08/28 09:08:49;;;;;;;20.65;6.80;;;;;;;;;;5085215;28;20076;-77
2021/08/28 09:11:26;;;;;;;21.13;7.40;;;;;;;;;;5105098;28;20135;-76
2021/08/28 09:14:12;;;;;;;21.88;6.53;;;;;;;;;;5106909;28;20047;-73
2021/08/28 09:16:38;;;;;;;22.02;6.82;;;;;;;;;;5107890;28;20538;-75
2021/08/28 09:19:04;;;;;;;17.20;6.07;;;;;;;;;;5092129;28;20389;-78
2021/08/28 09:21:32;;;;;;;20.35;6.72;;;;;;;;;;5108515;28;20275;-72
2021/08/28 09:23:59;;;;;;;17.75;6.10;;;;;;;;;;5107335;28;20024;-76
2021/08/28 09:26:33;;;;;;;16.15;6.10;;;;;;;;;;5090745;28;20031;-76
2021/08/28 09:29:00;;;;;;;18.65;7.05;;;;;;;;;;5108398;28;20015;-78
2021/08/28 09:31:38;;;;;;;16.13;5.93;;;;;;;;;;5107551;28;20020;-77
2021/08/28 09:34:13;;;;;;;14.45;5.20;;;;;;;;;;5103709;28;20098;-76
2021/08/28 09:36:39;;;;;;;10.48;4.53;;;;;;;;;;5091057;28;20096;-76
2021/08/28 09:39:05;;;;;;;11.70;5.18;;;;;;;;;;5109532;28;20027;-77
2021/08/28 09:41:32;;;;;;;17.40;4.88;;;;;;;;;;5107510;28;20027;-78
2021/08/28 09:44:10;;;;;;;12.30;4.68;;;;;;;;;;5105880;28;20584;-79
2021/08/28 09:46:37;;;;;;;14.43;5.10;;;;;;;;;;5108606;28;20027;-78
2021/08/28 09:49:04;;;;;;;15.70;5.78;;;;;;;;;;5106256;28;20065;-79
2021/08/28 09:51:48;;;;;;;11.20;4.97;;;;;;;;;;5092192;28;20032;-75
2021/08/28 09:54:14;;;;;;;11.63;5.47;;;;;;;;;;5105045;28;20016;-81
2021/08/28 09:56:43;;;;;;;13.48;5.45;;;;;;;;;;5112837;28;20051;-78
2021/08/28 09:59:21;;;;;;;20.17;5.43;;;;;;;;;;5111116;28;20255;-81
2021/08/28 10:01:47;;;;;;;15.63;5.90;;;;;;;;;;5107829;28;20028;-80
2021/08/28 10:04:13;;;;;;;15.38;5.80;;;;;;;;;;5087786;28;20023;-82
2021/08/28 10:06:46;;;;;;;19.30;6.72;;;;;;;;;;5105091;28;20028;-80
2021/08/28 10:09:15;;;;;;;16.00;6.80;;;;;;;;;;5106100;28;20038;-78
2021/08/28 10:11:45;;;;;;;13.48;6.25;;;;;;;;;;5109748;28;20016;-81
2021/08/28 10:14:14;;;;;;;21.90;6.68;;;;;;;;;;5088718;28;20045;-76
2021/08/28 10:16:40;;;;;;;17.17;7.55;;;;;;;;;;5090874;28;20089;-75
2021/08/28 10:19:07;;;;;;;19.35;8.18;;;;;;;;;;5109890;28;20020;-76
2021/08/28 10:21:33;;;;;;;19.00;7.70;;;;;;;;;;5091971;28;20028;-75
2021/08/28 10:23:59;;;;;;;16.00;7.38;;;;;;;;;;5102615;28;20028;-75
2021/08/28 10:26:25;;;;;;;28.83;10.15;;;;;;;;;;5108726;28;20119;-75
2021/08/28 10:28:53;;;;;;;29.45;9.88;;;;;;;;;;5107558;28;20084;-74
2021/08/28 10:31:20;;;;;;;23.27;9.20;;;;;;;;;;5108083;28;20032;-75
2021/08/28 10:33:46;;;;;;;28.85;9.48;;;;;;;;;;5086957;28;20027;-75
2021/08/28 10:36:12;;;;;;;26.60;10.70;;;;;;;;;;5089376;28;20024;-76
2021/08/28 10:38:39;;;;;;;27.30;10.27;;;;;;;;;;5107906;28;20225;-76
2021/08/28 10:41:05;;;;;;;28.98;10.15;;;;;;;;;;5091038;28;20059;-77
2021/08/28 10:43:31;;;;;;;35.15;11.73;;;;;;;;;;5087464;28;20044;-75
2021/08/28 10:45:57;;;;;;;27.65;10.48;;;;;;;;;;5109729;28;20020;-78
2021/08/28 10:48:24;;;;;;;23.17;9.85;;;;;;;;;;5108797;28;20136;-77
2021/08/28 10:50:52;;;;;;;23.42;9.73;;;;;;;;;;5088881;28;20520;-77
2021/08/28 10:53:19;;;;;;;31.02;10.50;;;;;;;;;;5104955;28;20124;-80
2021/08/28 10:55:48;;;;;;;24.33;8.88;;;;;;;;;;5108986;28;20020;-76
2021/08/28 10:58:22;;;;;;;27.27;9.63;;;;;;;;;;5104751;28;20046;-76
2021/08/28 11:00:49;;;;;;;29.20;11.13;;;;;;;;;;5091111;28;20504;-76
2021/08/28 11:03:31;;;;;;;24.42;9.15;;;;;;;;;;5103840;28;20035;-77
2021/08/28 11:06:16;;;;;;;23.17;9.32;;;;;;;;;;5108121;28;20172;-74
2021/08/28 11:08:55;;;;;;;22.23;9.45;;;;;;;;;;5107724;28;20028;-81
2021/08/28 11:11:41;;;;;;;30.98;9.98;;;;;;;;;;5088279;28;20034;-82
2021/08/28 11:14:09;;;;;;;28.52;11.55;;;;;;;;;;5104160;28;20031;-77
2021/08/28 11:16:41;;;;;;;25.25;10.43;;;;;;;;;;5107570;28;20106;-79
2021/08/28 11:19:08;;;;;;;27.02;9.88;;;;;;;;;;5086919;28;20016;-72
2021/08/28 11:21:50;;;;;;;35.78;10.05;;;;;;;;;;5091783;28;20054;-73
2021/08/28 11:24:21;;;;;;;21.75;9.77;;;;;;;;;;5106340;28;20084;-73
2021/08/28 11:26:50;;;;;;;31.23;8.30;;;;;;;;;;5108874;28;20077;-75
2021/08/28 11:29:22;;;;;;;25.40;8.23;;;;;;;;;;5108218;28;20058;-75
2021/08/28 11:32:12;;;;;;;18.00;7.50;;;;;;;;;;5110272;28;20737;-77
2021/08/28 11:34:42;;;;;;;24.15;7.65;;;;;;;;;;5093721;28;20034;-76
2021/08/28 11:37:29;;;;;;;21.10;8.40;;;;;;;;;;5094209;28;20016;-77
2021/08/28 11:40:15;;;;;;;26.98;7.90;;;;;;;;;;5112493;28;20072;-80
2021/08/28 11:42:43;;;;;;;24.30;7.53;;;;;;;;;;5089844;28;20066;-74
2021/08/28 11:45:10;;;;;;;20.70;7.40;;;;;;;;;;5093595;28;20023;-76
2021/08/28 11:47:38;;;;;;;19.02;7.75;;;;;;;;;;5112749;28;20034;-78
2021/08/28 11:50:06;;;;;;;20.42;7.35;;;;;;;;;;5110808;28;20493;-78
2021/08/28 11:52:35;;;;;;;18.08;6.78;;;;;;;;;;5109547;28;20180;-74
2021/08/28 11:55:02;;;;;;;15.27;6.10;;;;;;;;;;5109685;28;20508;-77
2021/08/28 11:57:28;;;;;;;16.65;5.75;;;;;;;;;;5112479;28;20050;-79
2021/08/28 11:59:54;;;;;;;18.65;6.72;;;;;;;;;;5109879;28;20032;-76
2021/08/28 12:02:23;;;;;;;17.20;6.35;;;;;;;;;;5091089;28;20035;-75
2021/08/28 12:04:49;;;;;;;18.55;6.55;;;;;;;;;;5112053;28;20028;-75
2021/08/28 12:07:15;;;;;;;26.52;7.15;;;;;;;;;;5111780;28;20031;-76
2021/08/28 12:09:41;;;;;;;11.90;5.93;;;;;;;;;;5093063;28;20114;-77
2021/08/28 12:12:07;;;;;;;15.63;6.13;;;;;;;;;;5108193;28;20062;-73
2021/08/28 12:14:33;;;;;;;20.35;6.57;;;;;;;;;;5108207;28;20008;-74
2021/08/28 12:17:00;;;;;;;16.17;6.68;;;;;;;;;;5111507;28;20031;-74
2021/08/28 12:19:29;;;;;;;14.10;6.22;;;;;;;;;;5092165;28;20030;-76
2021/08/28 12:21:59;;;;;;;14.75;5.53;;;;;;;;;;5111549;28;20106;-77
2021/08/28 12:24:25;;;;;;;13.63;5.90;;;;;;;;;;5107583;28;20129;-76
2021/08/28 12:26:57;;;;;;;16.80;6.03;;;;;;;;;;5090365;28;20016;-74
2021/08/28 12:29:25;;;;;;;33.28;7.30;;;;;;;;;;5107494;28;20063;-75
2021/08/28 12:32:01;;;;;;;18.70;6.28;;;;;;;;;;5092076;28;20027;-74
2021/08/28 12:34:30;;;;;;;18.92;6.53;;;;;;;;;;5106498;28;20035;-75
2021/08/28 12:36:56;;;;;;;19.33;6.07;;;;;;;;;;5089023;28;20031;-76
2021/08/28 12:39:23;;;;;;;18.83;6.40;;;;;;;;;;5092391;28;20032;-77
2021/08/28 12:41:49;;;;;;;20.35;6.90;;;;;;;;;;5103831;28;20042;-75
2021/08/28 12:44:16;;;;;;;21.70;6.93;;;;;;;;;;5093119;28;20024;-75
2021/08/28 12:46:45;;;;;;;21.02;6.95;;;;;;;;;;5092395;28;20116;-73
2021/08/28 12:49:12;;;;;;;18.02;5.78;;;;;;;;;;5107485;28;20046;-72
2021/08/28 12:51:47;;;;;;;22.88;5.60;;;;;;;;;;5111615;28;20030;-71
2021/08/28 12:54:24;;;;;;;16.05;5.70;;;;;;;;;;5094397;28;20481;-72
2021/08/28 12:56:52;;;;;;;15.98;6.43;;;;;;;;;;5092237;28;20016;-72
2021/08/28 12:59:22;;;;;;;18.02;6.35;;;;;;;;;;5093416;28;20235;-74
2021/08/28 13:01:52;;;;;;;21.15;6.97;;;;;;;;;;5100228;28;20067;-72
2021/08/28 13:04:19;;;;;;;19.45;7.03;;;;;;;;;;5103351;28;20027;-74
2021/08/28 13:07:05;;;;;;;21.48;7.03;;;;;;;;;;5103017;28;20485;-73
2021/08/28 13:09:31;;;;;;;21.70;6.10;;;;;;;;;;5111757;28;20053;-72
2021/08/28 13:11:57;;;;;;;14.25;5.93;;;;;;;;;;5086270;28;20023;-74
2021/08/28 13:14:23;;;;;;;15.68;5.57;;;;;;;;;;5088586;28;20085;-73
2021/08/28 13:16:54;;;;;;;14.95;5.25;;;;;;;;;;5100113;28;20016;-71
2021/08/28 13:19:20;;;;;;;16.13;6.30;;;;;;;;;;5107462;28;20026;-72
2021/08/28 13:21:47;;;;;;;17.30;6.57;;;;;;;;;;5107318;28;20027;-72
2021/08/28 13:24:14;;;;;;;22.23;5.25;;;;;;;;;;5098708;28;20100;-74
2021/08/28 13:26:56;;;;;;;16.52;4.57;;;;;;;;;;5100907;28;20024;-72
2021/08/28 13:29:26;;;;;;;17.73;6.85;;;;;;;;;;5106057;28;20019;-73
2021/08/28 13:32:07;;;;;;;17.23;6.40;;;;;;;;;;5101653;28;20046;-72
2021/08/28 13:34:40;;;;;;;18.93;5.60;;;;;;;;;;5100485;28;20023;-71
2021/08/28 13:37:08;;;;;;;15.35;5.68;;;;;;;;;;5093431;28;20264;-71
2021/08/28 13:39:35;;;;;;;16.67;4.70;;;;;;;;;;5103618;28;20044;-71
2021/08/28 13:42:01;;;;;;;14.95;5.18;;;;;;;;;;5110822;28;20023;-71
2021/08/28 13:44:28;;;;;;;13.02;4.88;;;;;;;;;;5087679;28;20023;-71
2021/08/28 13:46:54;;;;;;;17.88;5.55;;;;;;;;;;5092291;28;20073;-71
2021/08/28 13:49:20;;;;;;;14.43;4.85;;;;;;;;;;5091942;28;20035;-71
2021/08/28 13:51:46;;;;;;;15.30;5.30;;;;;;;;;;5088025;28;20027;-72
2021/08/28 13:54:12;;;;;;;11.52;4.00;;;;;;;;;;5072857;28;20071;-71
2021/08/28 13:56:38;;;;;;;18.67;4.70;;;;;;;;;;5110540;28;20487;-70
2021/08/28 13:59:04;;;;;;;16.17;4.88;;;;;;;;;;5109769;28;20035;-72
2021/08/28 14:01:30;;;;;;;18.58;5.50;;;;;;;;;;5108470;28;20020;-70
2021/08/28 14:03:56;;;;;;;16.08;4.88;;;;;;;;;;5107502;28;20035;-70
2021/08/28 14:06:22;;;;;;;9.80;4.20;;;;;;;;;;5110828;28;20027;-73
2021/08/28 14:08:48;;;;;;;15.60;4.70;;;;;;;;;;5109369;27;20147;-72
2021/08/28 14:11:14;;;;;;;11.00;4.18;;;;;;;;;;5092179;28;20063;-72
2021/08/28 14:13:40;;;;;;;15.32;5.07;;;;;;;;;;5107156;28;20024;-71
2021/08/28 14:16:07;;;;;;;19.70;5.03;;;;;;;;;;5091811;28;20050;-72
2021/08/28 14:18:34;;;;;;;17.70;4.55;;;;;;;;;;5099730;28;20081;-72
2021/08/28 14:21:00;;;;;;;15.90;4.30;;;;;;;;;;5108198;28;20031;-71
2021/08/28 14:23:26;;;;;;;18.45;4.55;;;;;;;;;;5107801;28;20034;-71
2021/08/28 14:25:53;;;;;;;21.23;5.50;;;;;;;;;;5112130;28;20057;-70
2021/08/28 14:28:19;;;;;;;14.45;4.60;;;;;;;;;;5131097;28;20034;-70
2021/08/28 14:30:45;;;;;;;23.02;5.57;;;;;;;;;;5109951;28;20035;-71